Time;durP1;ratioP1;P1;durP2;ratioP2;P2;SDS_P1;SDS_P2;PMS_P1;PMS_P2;Temp;Humidity;BMP_temperature;BMP_pressure;BME280_temperature;BME280_humidity;BME280_pressure;Samples;Min_cycle;Max_cycle;Signal;HPM_P1;HPM_P2
2023/12/10 00:02:44;;;;;;;35.50;19.27;;;5.60;99.90;;;;;;10325564;28;20237;-80
2023/12/10 00:07:46;;;;;;;36.23;22.33;;;5.60;99.90;;;;;;10329024;28;20631;-79
2023/12/10 00:12:49;;;;;;;29.13;17.93;;;5.60;99.90;;;;;;10328930;28;20237;-79
2023/12/10 00:17:51;;;;;;;30.17;17.60;;;5.60;99.90;;;;;;10332708;28;20315;-79
2023/12/10 00:22:54;;;;;;;22.97;13.20;;;5.30;99.90;;;;;;10353066;28;20230;-79
2023/12/10 00:27:58;;;;;;;18.43;11.83;;;5.50;99.90;;;;;;10335922;28;20247;-79
2023/12/10 00:33:00;;;;;;;32.60;19.23;;;5.40;99.90;;;;;;10363422;28;20281;-79
2023/12/10 00:38:03;;;;;;;30.37;18.13;;;5.40;99.90;;;;;;10401900;28;20243;-79
2023/12/10 00:43:05;;;;;;;30.17;15.90;;;5.40;99.90;;;;;;10342417;28;20232;-78
2023/12/10 00:48:08;;;;;;;32.80;20.00;;;5.20;99.90;;;;;;10385213;28;20831;-79
2023/12/10 00:53:11;;;;;;;37.97;22.03;;;5.50;99.90;;;;;;10395166;28;20662;-79
2023/12/10 00:58:14;;;;;;;29.47;18.77;;;5.50;99.90;;;;;;10386612;28;20318;-79
2023/12/10 01:03:17;;;;;;;33.83;18.73;;;5.70;99.90;;;;;;10404492;28;20346;-79
2023/12/10 01:08:20;;;;;;;38.40;21.87;;;5.90;99.90;;;;;;10411476;28;20594;-79
2023/12/10 01:13:24;;;;;;;24.83;16.83;;;5.80;99.90;;;;;;10382752;28;20235;-79
2023/12/10 01:18:26;;;;;;;28.57;18.60;;;6.00;99.90;;;;;;10354633;28;20253;-79
2023/12/10 01:23:29;;;;;;;20.67;13.43;;;5.30;99.90;;;;;;10396301;28;20963;-79
2023/12/10 01:28:33;;;;;;;26.43;15.73;;;5.50;99.90;;;;;;10410185;28;20266;-77
2023/12/10 01:33:35;;;;;;;29.33;17.70;;;5.90;99.90;;;;;;10409914;28;20262;-77
2023/12/10 01:38:38;;;;;;;33.80;20.97;;;5.40;99.90;;;;;;10408904;28;20243;-78
2023/12/10 01:43:42;;;;;;;37.43;22.47;;;4.90;99.90;;;;;;10410423;28;20225;-78
2023/12/10 01:48:46;;;;;;;26.20;16.63;;;5.00;99.90;;;;;;10409386;28;20259;-78
2023/12/10 01:53:49;;;;;;;24.13;13.97;;;4.90;99.90;;;;;;10409846;28;20296;-78
2023/12/10 01:58:52;;;;;;;29.33;18.57;;;4.80;99.90;;;;;;10409430;28;20250;-78
2023/12/10 02:03:55;;;;;;;27.53;17.57;;;5.00;99.90;;;;;;10407867;28;20664;-78
2023/12/10 02:08:58;;;;;;;34.87;21.07;;;5.50;99.90;;;;;;10408819;28;20615;-78
2023/12/10 02:14:01;;;;;;;53.53;29.27;;;4.90;99.90;;;;;;10407834;28;20234;-78
2023/12/10 02:19:03;;;;;;;39.73;21.37;;;4.80;99.90;;;;;;10408383;28;20690;-80
2023/12/10 02:24:10;;;;;;;28.50;17.07;;;4.80;99.90;;;;;;10408540;28;20253;-80
2023/12/10 02:29:12;;;;;;;29.50;19.77;;;4.90;99.90;;;;;;10394471;28;20617;-80
2023/12/10 02:34:15;;;;;;;25.33;18.00;;;4.10;99.90;;;;;;10367232;28;20243;-80
2023/12/10 02:39:19;;;;;;;32.80;21.07;;;4.10;99.90;;;;;;10367542;28;20224;-80
2023/12/10 02:44:22;;;;;;;30.70;19.13;;;4.20;99.90;;;;;;10373339;28;20648;-80
2023/12/10 02:49:24;;;;;;;21.67;14.53;;;4.50;99.90;;;;;;10408295;28;20321;-80
2023/12/10 02:54:27;;;;;;;23.80;16.80;;;4.30;99.90;;;;;;10407074;28;20223;-80
2023/12/10 02:59:30;;;;;;;29.30;19.47;;;4.40;99.90;;;;;;10407849;28;20230;-80
2023/12/10 03:04:32;;;;;;;24.23;14.20;;;4.50;99.90;;;;;;10407554;28;20293;-80
2023/12/10 03:09:35;;;;;;;20.93;13.47;;;4.90;99.90;;;;;;10407654;28;20239;-80
2023/12/10 03:14:38;;;;;;;18.93;12.87;;;4.90;99.90;;;;;;10407945;28;20749;-80
2023/12/10 03:19:40;;;;;;;17.70;11.93;;;5.30;99.90;;;;;;10407354;28;20231;-80
2023/12/10 03:24:43;;;;;;;26.83;17.60;;;5.40;99.90;;;;;;10407820;28;20609;-80
2023/12/10 03:29:46;;;;;;;18.43;12.37;;;5.60;99.90;;;;;;10406946;28;20262;-80
2023/12/10 03:34:48;;;;;;;22.03;14.73;;;5.70;99.90;;;;;;10406583;28;20300;-80
2023/12/10 03:39:51;;;;;;;18.60;13.73;;;6.00;99.90;;;;;;10406521;28;20668;-80
2023/12/10 03:44:56;;;;;;;16.50;11.23;;;5.90;99.90;;;;;;10406499;28;20616;-80
2023/12/10 03:49:58;;;;;;;24.70;15.70;;;5.70;99.90;;;;;;10413276;28;20270;-80
2023/12/10 03:55:01;;;;;;;23.43;15.60;;;5.70;99.90;;;;;;10414041;28;20266;-80
2023/12/10 04:00:06;;;;;;;25.93;16.17;;;5.80;99.90;;;;;;10413898;28;20759;-80
2023/12/10 04:05:15;;;;;;;22.73;14.57;;;5.80;99.90;;;;;;10412546;28;20254;-80
2023/12/10 04:10:18;;;;;;;27.73;16.37;;;5.70;99.90;;;;;;10413496;28;20297;-80
2023/12/10 04:15:21;;;;;;;14.97;8.87;;;5.70;99.90;;;;;;10413510;28;20263;-80
2023/12/10 04:20:23;;;;;;;29.57;17.83;;;5.70;99.90;;;;;;10412925;28;20779;-80
2023/12/10 04:25:26;;;;;;;25.23;15.13;;;5.70;99.90;;;;;;10412987;28;20212;-80
2023/12/10 04:30:29;;;;;;;19.43;12.63;;;5.50;99.90;;;;;;10412167;28;20238;-80
2023/12/10 04:35:32;;;;;;;25.73;16.60;;;5.40;99.90;;;;;;10412587;28;20242;-80
2023/12/10 04:40:34;;;;;;;17.50;11.90;;;5.60;99.90;;;;;;10412720;28;20235;-80
2023/12/10 04:45:37;;;;;;;24.40;16.53;;;5.40;99.90;;;;;;10411573;28;20332;-80
2023/12/10 04:50:40;;;;;;;26.23;16.60;;;5.40;99.90;;;;;;10412081;28;20734;-80
2023/12/10 04:55:43;;;;;;;29.90;18.77;;;5.20;99.90;;;;;;10412165;28;20631;-80
2023/12/10 05:00:45;;;;;;;24.23;16.97;;;5.60;99.90;;;;;;10411623;28;20290;-80
2023/12/10 05:05:48;;;;;;;27.27;18.10;;;5.60;99.90;;;;;;10412404;28;20629;-80
2023/12/10 05:10:51;;;;;;;18.50;11.80;;;5.50;99.90;;;;;;10371378;28;20242;-80
2023/12/10 05:15:55;;;;;;;20.53;14.13;;;5.10;99.90;;;;;;10370672;28;20255;-80
2023/12/10 05:20:58;;;;;;;18.03;12.67;;;5.10;99.90;;;;;;10394890;28;20223;-80
2023/12/10 05:26:01;;;;;;;16.03;11.43;;;5.00;99.90;;;;;;10411201;28;20243;-80
2023/12/10 05:31:03;;;;;;;21.70;13.87;;;4.90;99.90;;;;;;10410908;28;20671;-80
2023/12/10 05:36:07;;;;;;;30.20;18.83;;;5.00;99.90;;;;;;10408981;28;20285;-81
2023/12/10 05:41:10;;;;;;;18.60;12.27;;;4.90;99.90;;;;;;10410299;28;20239;-80
2023/12/10 05:46:12;;;;;;;24.63;17.60;;;4.90;99.90;;;;;;10410036;28;20329;-80
2023/12/10 05:51:15;;;;;;;14.57;9.23;;;4.60;99.90;;;;;;10408190;28;20235;-80
2023/12/10 05:56:18;;;;;;;27.00;19.00;;;4.40;99.90;;;;;;10409544;28;20695;-80
2023/12/10 06:01:20;;;;;;;21.37;13.57;;;4.50;99.90;;;;;;10409650;28;20732;-80
2023/12/10 06:06:24;;;;;;;20.83;14.13;;;4.60;99.90;;;;;;10408908;28;20239;-81
2023/12/10 06:11:26;;;;;;;23.97;15.30;;;4.70;99.90;;;;;;10407420;28;20677;-80
2023/12/10 06:16:29;;;;;;;23.67;16.30;;;4.30;99.90;;;;;;10409015;28;20374;-80
2023/12/10 06:21:33;;;;;;;27.80;16.57;;;4.40;99.90;;;;;;10407242;28;20238;-80
2023/12/10 06:26:36;;;;;;;21.60;14.37;;;4.40;99.90;;;;;;10407811;28;20779;-80
2023/12/10 06:31:39;;;;;;;27.80;17.93;;;4.70;99.90;;;;;;10409145;28;20241;-80
2023/12/10 06:36:41;;;;;;;22.47;14.83;;;4.90;99.90;;;;;;10407334;28;20309;-80
2023/12/10 06:41:44;;;;;;;22.23;14.53;;;5.10;99.90;;;;;;10408203;28;20248;-80
2023/12/10 06:46:50;;;;;;;28.47;19.20;;;4.90;99.90;;;;;;10407577;28;20251;-80
2023/12/10 06:51:53;;;;;;;28.03;17.33;;;4.60;99.90;;;;;;10406761;28;20275;-80
2023/12/10 06:56:56;;;;;;;35.93;23.70;;;4.70;99.90;;;;;;10407771;28;20295;-80
2023/12/10 07:01:58;;;;;;;31.37;20.00;;;4.60;99.90;;;;;;10407898;28;20242;-81
2023/12/10 07:07:01;;;;;;;28.23;18.77;;;4.60;99.90;;;;;;10407851;28;20236;-81
2023/12/10 07:12:04;;;;;;;34.33;20.97;;;4.60;99.90;;;;;;10407434;28;20242;-81
2023/12/10 07:17:06;;;;;;;33.40;20.97;;;4.60;99.90;;;;;;10406657;28;20257;-80
2023/12/10 07:22:09;;;;;;;30.77;18.60;;;4.40;99.90;;;;;;10411243;28;20686;-80
2023/12/10 07:27:15;;;;;;;34.37;20.40;;;4.00;99.90;;;;;;10415958;28;20267;-81
2023/12/10 07:32:18;;;;;;;23.67;15.60;;;4.00;99.90;;;;;;10415114;28;20293;-80
2023/12/10 07:37:20;;;;;;;28.50;19.27;;;4.30;99.90;;;;;;10413158;28;20730;-81
2023/12/10 07:42:23;;;;;;;22.30;15.03;;;4.20;99.90;;;;;;10413673;28;20241;-80
2023/12/10 07:47:25;;;;;;;29.73;18.90;;;4.30;99.90;;;;;;10414202;28;20270;-80
2023/12/10 07:52:28;;;;;;;15.77;9.20;;;4.10;99.90;;;;;;10414514;28;20251;-81
2023/12/10 07:57:31;;;;;;;18.90;12.53;;;3.90;99.90;;;;;;10413037;28;20268;-80
2023/12/10 08:02:33;;;;;;;17.40;12.07;;;4.30;99.90;;;;;;10413267;28;20690;-81
2023/12/10 08:07:36;;;;;;;14.33;10.40;;;4.80;99.90;;;;;;10412478;28;20749;-81
2023/12/10 08:12:38;;;;;;;10.27;8.03;;;5.10;99.90;;;;;;10413042;28;20238;-80
2023/12/10 08:17:41;;;;;;;22.53;15.20;;;4.90;99.90;;;;;;10413140;28;20270;-81
2023/12/10 08:22:44;;;;;;;27.87;17.60;;;4.30;99.90;;;;;;10413272;28;20269;-81
2023/12/10 08:27:47;;;;;;;37.00;20.97;;;4.20;99.90;;;;;;10413129;28;20277;-81
2023/12/10 08:32:49;;;;;;;29.37;19.00;;;4.10;99.90;;;;;;10411671;28;20242;-81
2023/12/10 08:37:52;;;;;;;28.67;17.53;;;4.30;99.90;;;;;;10411072;28;20338;-81
2023/12/10 08:42:55;;;;;;;29.80;18.70;;;4.70;99.90;;;;;;10412259;28;20330;-81
2023/12/10 08:47:58;;;;;;;28.63;18.33;;;4.50;99.90;;;;;;10411855;28;20263;-80
2023/12/10 08:53:00;;;;;;;32.00;19.57;;;4.40;99.90;;;;;;10411812;28;20284;-80
2023/12/10 08:58:03;;;;;;;24.83;16.17;;;4.70;99.90;;;;;;10410687;28;20292;-81
2023/12/10 09:03:05;;;;;;;28.67;16.87;;;4.60;99.90;;;;;;10411172;28;20240;-81
2023/12/10 09:08:08;;;;;;;28.47;17.67;;;4.30;99.90;;;;;;10411278;28;20264;-81
2023/12/10 09:13:10;;;;;;;23.17;16.30;;;4.50;99.90;;;;;;10411218;28;20247;-81
2023/12/10 09:18:13;;;;;;;23.40;16.00;;;4.40;99.90;;;;;;10410219;28;20249;-80
2023/12/10 09:23:16;;;;;;;24.33;15.80;;;4.80;99.90;;;;;;10410870;28;20229;-81
2023/12/10 09:28:18;;;;;;;26.70;16.67;;;4.60;99.90;;;;;;10410289;28;20246;-80
2023/12/10 09:33:21;;;;;;;19.97;13.93;;;4.50;99.90;;;;;;10409951;28;20691;-80
2023/12/10 09:38:24;;;;;;;27.87;16.67;;;4.70;99.90;;;;;;10410001;28;20257;-79
2023/12/10 09:43:26;;;;;;;27.20;19.80;;;4.50;99.90;;;;;;10386877;28;20910;-80
2023/12/10 09:48:30;;;;;;;21.30;14.47;;;4.10;99.90;;;;;;10409644;28;20333;-80
2023/12/10 09:53:33;;;;;;;17.07;11.17;;;4.00;99.90;;;;;;10393621;28;20228;-77
2023/12/10 09:58:36;;;;;;;12.60;8.57;;;4.30;99.90;;;;;;10367420;28;20327;-78
2023/12/10 10:03:40;;;;;;;17.43;13.13;;;4.50;99.90;;;;;;10399120;28;20225;-78
2023/12/10 10:08:42;;;;;;;24.40;15.20;;;4.80;99.90;;;;;;10407761;28;20916;-78
2023/12/10 10:13:53;;;;;;;26.37;16.83;;;4.90;99.90;;;;;;10407686;28;20236;-80
2023/12/10 10:18:55;;;;;;;21.03;14.23;;;4.80;99.90;;;;;;10408117;28;20252;-80
2023/12/10 10:23:58;;;;;;;22.37;15.70;;;4.80;99.90;;;;;;10408458;28;20938;-80
2023/12/10 10:29:05;;;;;;;18.20;10.80;;;4.80;99.90;;;;;;10408200;28;20243;-80
2023/12/10 10:34:08;;;;;;;21.23;14.60;;;4.90;99.90;;;;;;10406825;28;20235;-81
2023/12/10 10:39:11;;;;;;;26.00;16.53;;;5.20;99.90;;;;;;10408031;28;20264;-80
2023/12/10 10:44:13;;;;;;;36.37;21.17;;;5.00;99.90;;;;;;10406962;28;20686;-80
2023/12/10 10:49:16;;;;;;;22.90;15.43;;;4.80;99.90;;;;;;10382424;28;20666;-80
2023/12/10 10:54:19;;;;;;;20.97;13.93;;;4.60;99.90;;;;;;10382861;28;20288;-81
2023/12/10 10:59:32;;;;;;;13.57;9.40;;;4.70;99.90;;;;;;10405810;28;20290;-80
2023/12/10 11:04:38;;;;;;;25.50;17.13;;;4.70;99.90;;;;;;10406238;28;20244;-80
2023/12/10 11:09:56;;;;;;;19.87;12.67;;;4.70;99.90;;;;;;10406908;28;20285;-80
2023/12/10 11:14:58;;;;;;;26.47;16.63;;;4.80;99.90;;;;;;10406888;28;20282;-80
2023/12/10 11:20:02;;;;;;;24.80;15.50;;;4.60;99.90;;;;;;10405765;28;20247;-80
2023/12/10 11:25:05;;;;;;;29.13;16.73;;;4.50;99.90;;;;;;10405762;28;20302;-80
2023/12/10 11:30:08;;;;;;;15.70;9.03;;;4.40;99.90;;;;;;10406487;28;20232;-80
2023/12/10 11:35:10;;;;;;;21.67;14.30;;;4.60;99.90;;;;;;10398962;28;20759;-79
2023/12/10 11:40:16;;;;;;;20.13;14.30;;;4.90;99.90;;;;;;10377571;28;20255;-79
2023/12/10 11:45:19;;;;;;;23.40;15.83;;;5.50;99.90;;;;;;10395652;28;20240;-79
2023/12/10 11:50:21;;;;;;;22.43;13.33;;;5.50;99.90;;;;;;10404278;28;20743;-80
2023/12/10 11:55:24;;;;;;;22.60;15.37;;;5.30;99.90;;;;;;10402732;28;20241;-80
2023/12/10 12:00:27;;;;;;;24.17;16.43;;;5.50;99.90;;;;;;10401352;28;20250;-79
2023/12/10 12:05:30;;;;;;;27.30;18.33;;;6.20;99.90;;;;;;10385556;28;20257;-79
2023/12/10 12:10:37;;;;;;;26.57;17.37;;;5.70;99.90;;;;;;10396934;28;20305;-79
2023/12/10 12:15:47;;;;;;;27.47;18.33;;;5.00;99.90;;;;;;10412679;28;20597;-79
2023/12/10 12:20:50;;;;;;;34.23;18.80;;;4.80;99.90;;;;;;10413260;28;20258;-79
2023/12/10 12:25:52;;;;;;;30.63;18.03;;;4.50;99.90;;;;;;10413125;28;20703;-79
2023/12/10 12:30:57;;;;;;;28.53;18.00;;;4.30;99.90;;;;;;10411121;28;20233;-79
2023/12/10 12:35:59;;;;;;;26.50;16.17;;;4.40;99.90;;;;;;10412058;28;20280;-79
2023/12/10 12:41:02;;;;;;;26.57;15.70;;;4.20;99.90;;;;;;10393736;28;20709;-80
2023/12/10 12:46:05;;;;;;;29.43;17.73;;;4.00;99.90;;;;;;10331468;28;20297;-80
2023/12/10 12:51:08;;;;;;;30.90;18.53;;;4.20;99.90;;;;;;10364922;28;20246;-79
2023/12/10 12:56:11;;;;;;;34.50;20.63;;;4.80;99.90;;;;;;10372499;28;20312;-79
2023/12/10 13:01:13;;;;;;;33.93;21.43;;;4.70;99.90;;;;;;10377935;28;20253;-79
2023/12/10 13:06:19;;;;;;;35.47;21.23;;;4.50;99.90;;;;;;10411245;28;20637;-79
2023/12/10 13:11:21;;;;;;;36.53;20.60;;;4.40;99.90;;;;;;10393849;28;20373;-79
2023/12/10 13:16:24;;;;;;;36.10;21.90;;;4.40;99.90;;;;;;10393177;28;20302;-79
2023/12/10 13:21:27;;;;;;;34.83;24.07;;;4.20;99.90;;;;;;10393035;28;20264;-80
2023/12/10 13:26:29;;;;;;;43.40;24.63;;;4.30;99.90;;;;;;10369140;28;20315;-79
2023/12/10 13:31:32;;;;;;;35.60;21.77;;;4.30;99.90;;;;;;10391528;28;20294;-79
2023/12/10 13:36:34;;;;;;;44.57;24.53;;;4.40;99.90;;;;;;10409408;28;20649;-79
2023/12/10 13:41:37;;;;;;;41.37;24.77;;;4.30;99.90;;;;;;10409482;28;20355;-79
2023/12/10 13:46:40;;;;;;;34.87;21.63;;;4.20;99.90;;;;;;10405895;28;20628;-79
2023/12/10 13:51:42;;;;;;;30.20;18.07;;;4.20;99.90;;;;;;10408435;28;20235;-80
2023/12/10 13:56:45;;;;;;;30.27;19.27;;;4.10;99.90;;;;;;10409017;28;20262;-79
2023/12/10 14:01:52;;;;;;;41.90;23.83;;;4.20;99.90;;;;;;10408166;28;20260;-79
2023/12/10 14:06:55;;;;;;;28.83;16.00;;;4.10;99.90;;;;;;10408383;28;20295;-79
2023/12/10 14:11:57;;;;;;;33.07;21.13;;;4.40;99.90;;;;;;10407365;28;20320;-79
2023/12/10 14:17:00;;;;;;;34.63;23.23;;;4.40;99.90;;;;;;10408018;28;20263;-79
2023/12/10 14:22:03;;;;;;;36.33;22.57;;;4.30;99.90;;;;;;10407158;28;20784;-80
2023/12/10 14:27:06;;;;;;;40.70;24.90;;;4.30;99.90;;;;;;10408449;28;20242;-79
2023/12/10 14:32:08;;;;;;;38.23;25.07;;;4.10;99.90;;;;;;10407554;28;20280;-79
2023/12/10 14:37:11;;;;;;;34.27;21.93;;;4.10;99.90;;;;;;10407203;28;20695;-79
2023/12/10 14:42:14;;;;;;;95.77;38.73;;;4.00;99.90;;;;;;10406958;28;20761;-80
2023/12/10 14:47:16;;;;;;;41.97;25.10;;;4.50;99.90;;;;;;10398688;28;20256;-79
2023/12/10 14:52:22;;;;;;;40.37;24.80;;;4.50;99.90;;;;;;10407560;28;20197;-79
2023/12/10 14:57:25;;;;;;;34.40;23.63;;;4.30;99.90;;;;;;10407404;28;20237;-79
2023/12/10 15:02:28;;;;;;;35.93;22.53;;;4.00;99.90;;;;;;10404715;28;20236;-79
2023/12/10 15:07:31;;;;;;;37.27;21.03;;;4.10;99.90;;;;;;10407003;28;20220;-79
2023/12/10 15:12:33;;;;;;;37.90;22.27;;;4.00;99.90;;;;;;10406272;28;20227;-79
2023/12/10 15:17:37;;;;;;;40.13;23.40;;;3.90;99.90;;;;;;10405654;28;20293;-79
2023/12/10 15:22:40;;;;;;;39.73;27.67;;;3.80;99.90;;;;;;10406760;28;20287;-80
2023/12/10 15:27:42;;;;;;;44.57;28.87;;;3.50;99.90;;;;;;10406515;28;20235;-80
2023/12/10 15:32:46;;;;;;;48.10;30.80;;;2.80;99.90;;;;;;10404867;28;20235;-80
2023/12/10 15:37:49;;;;;;;48.83;30.20;;;2.60;99.90;;;;;;10405456;28;20274;-79
2023/12/10 15:42:51;;;;;;;55.03;32.23;;;2.50;99.90;;;;;;10407373;28;20667;-79
2023/12/10 15:47:54;;;;;;;71.43;38.30;;;2.50;99.90;;;;;;10402071;28;20254;-79
2023/12/10 15:52:56;;;;;;;59.57;38.27;;;2.40;99.90;;;;;;10412954;28;20246;-79
2023/12/10 15:57:59;;;;;;;64.77;40.10;;;2.40;99.90;;;;;;10413330;28;20735;-79
2023/12/10 16:03:02;;;;;;;33.43;17.20;;;2.40;99.90;;;;;;10411524;28;20281;-79
2023/12/10 16:08:04;;;;;;;41.97;22.90;;;2.50;99.90;;;;;;10407407;28;20740;-79
2023/12/10 16:13:07;;;;;;;31.83;18.23;;;2.80;99.90;;;;;;10413056;28;20608;-79
2023/12/10 16:18:10;;;;;;;37.80;22.30;;;3.10;99.90;;;;;;10413119;28;20247;-79
2023/12/10 16:23:13;;;;;;;32.17;18.50;;;3.30;99.90;;;;;;10411086;28;20231;-79
2023/12/10 16:28:15;;;;;;;35.00;21.50;;;3.50;99.90;;;;;;10407207;28;20235;-79
2023/12/10 16:33:20;;;;;;;40.70;21.47;;;3.70;99.90;;;;;;10412239;28;20239;-79
2023/12/10 16:38:23;;;;;;;37.90;22.57;;;3.80;99.90;;;;;;10411970;28;20247;-79
2023/12/10 16:43:26;;;;;;;39.63;20.70;;;3.90;99.90;;;;;;10387373;28;20236;-79
2023/12/10 16:48:28;;;;;;;39.27;21.70;;;4.20;99.90;;;;;;10352252;28;20260;-79
2023/12/10 16:53:31;;;;;;;41.27;21.23;;;4.30;99.90;;;;;;10372855;28;20596;-79
2023/12/10 16:58:33;;;;;;;44.93;21.03;;;4.50;99.90;;;;;;10407055;28;20666;-79
2023/12/10 17:03:36;;;;;;;30.17;17.30;;;4.50;99.90;;;;;;10393708;28;20227;-79
2023/12/10 17:08:39;;;;;;;26.30;16.03;;;4.50;99.90;;;;;;10404652;28;20660;-79
2023/12/10 17:13:42;;;;;;;32.07;16.33;;;4.60;99.90;;;;;;10410771;28;20243;-79
2023/12/10 17:18:44;;;;;;;27.03;15.60;;;4.60;99.90;;;;;;10408963;28;20235;-79
2023/12/10 17:23:47;;;;;;;30.93;15.27;;;4.60;99.90;;;;;;10410741;28;20289;-79
2023/12/10 17:28:50;;;;;;;36.17;19.70;;;4.70;99.90;;;;;;10407339;28;20235;-79
2023/12/10 17:33:53;;;;;;;30.07;16.90;;;4.70;99.90;;;;;;10388479;28;20231;-78
2023/12/10 17:38:56;;;;;;;29.77;16.30;;;4.90;99.90;;;;;;10409588;28;20661;-78
2023/12/10 17:43:58;;;;;;;27.17;14.50;;;5.00;99.90;;;;;;10394025;28;20286;-78
2023/12/10 17:49:01;;;;;;;24.90;14.33;;;5.00;99.90;;;;;;10395982;28;20313;-78
2023/12/10 17:54:03;;;;;;;32.10;17.57;;;5.20;99.90;;;;;;10381025;28;20698;-78
2023/12/10 17:59:06;;;;;;;33.50;18.93;;;4.80;99.90;;;;;;10366164;28;20718;-78
2023/12/10 18:04:09;;;;;;;28.47;15.60;;;4.30;99.90;;;;;;10326987;28;20772;-78
2023/12/10 18:09:11;;;;;;;29.77;16.47;;;4.20;99.90;;;;;;10354718;28;20290;-78
2023/12/10 18:14:14;;;;;;;26.23;14.60;;;4.40;99.90;;;;;;10395515;28;20624;-78
2023/12/10 18:19:17;;;;;;;25.37;15.33;;;4.60;99.90;;;;;;10345248;28;20709;-77
2023/12/10 18:24:20;;;;;;;47.10;21.57;;;4.70;99.90;;;;;;10328529;28;20693;-78
2023/12/10 18:29:22;;;;;;;34.63;17.30;;;4.80;99.90;;;;;;10342019;28;20243;-77
2023/12/10 18:34:25;;;;;;;27.43;16.23;;;5.00;99.90;;;;;;10399913;28;20298;-78
2023/12/10 18:39:28;;;;;;;28.40;15.57;;;5.30;99.90;;;;;;10399054;28;20254;-77
2023/12/10 18:44:32;;;;;;;27.47;13.90;;;5.30;99.90;;;;;;10385663;28;20252;-77
2023/12/10 18:49:35;;;;;;;31.23;18.47;;;5.60;99.90;;;;;;10389907;28;20304;-78
2023/12/10 18:54:38;;;;;;;32.77;14.87;;;5.80;99.90;;;;;;10407468;28;20257;-78
2023/12/10 18:59:41;;;;;;;23.17;13.37;;;5.90;99.90;;;;;;10403133;28;20309;-78
2023/12/10 19:04:44;;;;;;;34.17;21.43;;;6.00;99.90;;;;;;10402714;28;20257;-77
2023/12/10 19:09:47;;;;;;;33.10;17.47;;;6.10;99.90;;;;;;10407586;28;20231;-77
2023/12/10 19:14:51;;;;;;;38.03;21.80;;;6.30;99.90;;;;;;10406387;28;20228;-77
2023/12/10 19:19:54;;;;;;;25.17;15.33;;;6.30;99.90;;;;;;10413861;28;20263;-78
2023/12/10 19:24:56;;;;;;;29.00;15.67;;;6.50;99.90;;;;;;10415448;28;20279;-78
2023/12/10 19:29:59;;;;;;;33.43;15.13;;;6.60;99.90;;;;;;10406695;28;20617;-78
2023/12/10 19:35:03;;;;;;;24.43;14.73;;;6.60;99.90;;;;;;10358765;28;20238;-78
2023/12/10 19:40:06;;;;;;;25.40;13.30;;;6.20;99.90;;;;;;10369807;28;20658;-76
2023/12/10 19:45:09;;;;;;;28.17;16.43;;;5.90;99.90;;;;;;10373381;28;20213;-77
2023/12/10 19:50:12;;;;;;;36.27;17.80;;;5.80;99.90;;;;;;10366760;28;20260;-77
2023/12/10 19:55:14;;;;;;;39.67;18.27;;;5.80;99.90;;;;;;10357297;28;20710;-78
2023/12/10 20:00:18;;;;;;;38.97;19.37;;;5.70;99.90;;;;;;10367127;28;20256;-78
2023/12/10 20:05:21;;;;;;;32.30;14.50;;;5.70;99.90;;;;;;10379043;28;20279;-78
2023/12/10 20:10:24;;;;;;;40.20;18.10;;;5.60;99.90;;;;;;10377383;28;20236;-77
2023/12/10 20:15:26;;;;;;;44.30;21.10;;;5.70;99.90;;;;;;10372011;28;20290;-78
2023/12/10 20:20:29;;;;;;;32.93;16.93;;;5.70;99.90;;;;;;10331750;28;20738;-78
2023/12/10 20:25:33;;;;;;;36.23;18.47;;;5.60;99.90;;;;;;10384119;28;20200;-78
2023/12/10 20:30:36;;;;;;;37.17;19.77;;;5.50;99.90;;;;;;10345238;28;20703;-79
2023/12/10 20:35:39;;;;;;;25.30;14.53;;;5.50;99.90;;;;;;10336765;28;20298;-78
2023/12/10 20:40:42;;;;;;;28.63;13.83;;;5.50;99.90;;;;;;10363579;28;20279;-80
2023/12/10 20:45:50;;;;;;;29.23;15.07;;;5.50;99.90;;;;;;10339022;28;20741;-78
2023/12/10 20:50:52;;;;;;;33.13;16.60;;;5.50;99.90;;;;;;10339073;28;20671;-78
2023/12/10 20:55:59;;;;;;;27.53;13.80;;;5.50;99.90;;;;;;10374696;28;20240;-78
2023/12/10 21:01:01;;;;;;;29.20;14.30;;;5.60;99.90;;;;;;10334523;28;20283;-78
2023/12/10 21:06:04;;;;;;;33.83;18.50;;;5.50;99.90;;;;;;10329786;28;20245;-78
2023/12/10 21:11:07;;;;;;;19.30;11.45;;;5.50;99.90;;;;;;9650699;28;10000700;-78
2023/12/10 21:16:13;;;;;;;35.07;16.63;;;5.60;99.90;;;;;;10369481;28;20236;-79
2023/12/10 21:21:16;;;;;;;30.30;14.57;;;5.70;99.90;;;;;;10383010;28;20261;-79
2023/12/10 21:26:18;;;;;;;28.87;14.57;;;5.70;99.90;;;;;;10318841;28;20237;-79
2023/12/10 21:31:21;;;;;;;25.73;13.73;;;5.60;99.90;;;;;;10364877;28;20653;-79
2023/12/10 21:36:26;;;;;;;26.07;12.37;;;5.60;99.90;;;;;;10367340;28;20235;-79
2023/12/10 21:41:29;;;;;;;28.97;14.27;;;5.80;99.90;;;;;;10360329;28;20692;-79
2023/12/10 21:46:35;;;;;;;23.33;12.60;;;6.00;99.90;;;;;;10359425;28;20264;-79
2023/12/10 21:51:38;;;;;;;27.23;14.07;;;6.00;99.90;;;;;;10369187;28;20765;-79
2023/12/10 21:56:41;;;;;;;25.77;11.30;;;6.10;99.90;;;;;;10402947;28;20718;-79
2023/12/10 22:01:43;;;;;;;22.50;11.20;;;6.20;99.90;;;;;;10363113;28;20722;-79
2023/12/10 22:06:46;;;;;;;26.27;12.17;;;6.20;99.90;;;;;;10366078;28;20249;-79
2023/12/10 22:11:49;;;;;;;28.00;11.87;;;6.10;99.90;;;;;;10371696;28;20271;-79
2023/12/10 22:16:51;;;;;;;24.33;10.30;;;6.10;99.90;;;;;;10398946;28;20266;-79
2023/12/10 22:21:54;;;;;;;26.83;12.00;;;6.10;99.90;;;;;;10335499;28;20250;-80
2023/12/10 22:26:56;;;;;;;20.80;9.93;;;5.90;99.90;;;;;;10370126;28;20684;-79
2023/12/10 22:31:59;;;;;;;23.20;10.90;;;5.80;99.90;;;;;;10389527;28;20262;-78
2023/12/10 22:37:02;;;;;;;26.30;11.43;;;5.80;99.90;;;;;;10354334;28;20227;-79
2023/12/10 22:42:05;;;;;;;34.03;12.43;;;5.70;99.90;;;;;;10335393;28;20307;-79
2023/12/10 22:47:07;;;;;;;13.60;7.70;;;5.60;99.90;;;;;;10366926;28;20314;-79
2023/12/10 22:52:10;;;;;;;19.40;10.53;;;5.50;99.90;;;;;;10358923;28;20301;-79
2023/12/10 22:57:12;;;;;;;16.80;9.27;;;5.40;99.90;;;;;;10367504;28;20232;-79
2023/12/10 23:02:15;;;;;;;22.20;9.03;;;5.50;99.90;;;;;;10351739;28;20252;-80
2023/12/10 23:07:18;;;;;;;22.13;10.67;;;5.30;99.90;;;;;;10359788;28;20231;-78
2023/12/10 23:12:20;;;;;;;19.87;9.93;;;5.30;99.90;;;;;;10408300;28;20667;-79
2023/12/10 23:17:23;;;;;;;20.67;9.20;;;5.30;99.90;;;;;;10406934;28;20243;-79
2023/12/10 23:22:25;;;;;;;21.23;9.53;;;5.30;99.90;;;;;;10407409;28;20270;-79
2023/12/10 23:27:28;;;;;;;17.30;9.27;;;5.20;99.90;;;;;;10411337;28;20195;-78
2023/12/10 23:32:31;;;;;;;19.67;9.80;;;5.20;99.90;;;;;;10411535;28;20196;-79
2023/12/10 23:37:33;;;;;;;20.73;10.03;;;5.20;99.90;;;;;;10409244;28;20212;-79
2023/12/10 23:42:36;;;;;;;26.17;8.40;;;5.10;99.90;;;;;;10409055;28;20253;-79
2023/12/10 23:47:38;;;;;;;18.40;9.23;;;5.00;99.90;;;;;;10406937;28;20645;-79
2023/12/10 23:52:41;;;;;;;13.07;7.50;;;5.10;99.90;;;;;;10407370;28;20243;-79
2023/12/10 23:57:43;;;;;;;11.07;7.00;;;5.10;99.90;;;;;;10407393;28;20966;-79
